createdAt,value
2018-01-14T18:28:56.301Z,14.07
2018-01-14T18:31:22.992Z,14.10
2018-01-14T18:33:49.662Z,13.73
2018-01-14T18:36:16.320Z,12.93
2018-01-14T18:38:43.932Z,13.70
2018-01-14T18:41:10.604Z,13.60
2018-01-14T18:43:37.291Z,13.53
2018-01-14T18:46:09.906Z,13.67
2018-01-14T18:48:36.698Z,13.77
2018-01-14T18:51:05.368Z,13.83
2018-01-14T18:53:33.963Z,14.00
2018-01-14T18:56:01.569Z,13.83
2018-01-14T18:58:31.394Z,13.30
2018-01-14T19:00:59.100Z,13.27
2018-01-14T19:03:29.044Z,13.23
2018-01-14T19:05:58.809Z,13.10
2018-01-14T19:08:25.474Z,14.20
2018-01-14T19:10:55.512Z,13.53
2018-01-14T19:13:24.110Z,14.57
2018-01-14T19:15:54.039Z,13.97
2018-01-14T19:18:26.734Z,14.63
2018-01-14T19:20:55.397Z,13.73
2018-01-14T19:23:22.074Z,13.63
2018-01-14T19:25:50.719Z,13.60
2018-01-14T19:28:17.426Z,12.93
2018-01-14T19:30:44.093Z,13.00
2018-01-14T19:33:10.849Z,13.83
2018-01-14T19:35:37.551Z,14.90
2018-01-14T19:38:07.752Z,13.73
2018-01-14T19:40:34.440Z,13.70
2018-01-14T19:43:04.438Z,13.83
2018-01-14T19:45:33.063Z,13.93
2018-01-14T19:48:00.733Z,15.37
2018-01-14T19:50:30.921Z,14.37
2018-01-14T19:53:03.521Z,14.83
2018-01-14T19:55:33.724Z,14.80
2018-01-14T19:58:02.339Z,14.50
2018-01-14T20:00:32.310Z,13.83
2018-01-14T20:03:06.892Z,16.43
2018-01-14T20:05:44.967Z,14.00
2018-01-14T20:08:12.622Z,14.17
2018-01-14T20:10:46.862Z,14.37
2018-01-14T20:13:24.373Z,13.90
2018-01-14T20:15:57.858Z,14.23
2018-01-14T20:18:24.550Z,14.20
2018-01-14T20:20:53.254Z,14.13
2018-01-14T20:23:20.900Z,14.40
2018-01-14T20:28:39.501Z,14.17
2018-01-14T20:34:04.212Z,13.57
2018-01-14T20:36:35.647Z,14.27
2018-01-14T20:39:02.313Z,13.90
2018-01-14T20:41:33.527Z,14.57
2018-01-14T20:44:10.221Z,13.63
2018-01-14T20:46:36.894Z,13.50
2018-01-14T20:49:05.531Z,14.13
2018-01-14T20:51:39.466Z,15.53
2018-01-14T20:54:07.113Z,15.40
2018-01-14T20:56:38.037Z,14.77
2018-01-14T20:59:04.704Z,15.00
2018-01-14T21:01:37.030Z,14.67
2018-01-14T21:04:07.291Z,16.13
2018-01-14T21:06:36.990Z,14.77
2018-01-14T21:09:03.673Z,15.13
2018-01-14T21:11:42.116Z,16.33
2018-01-14T21:14:15.187Z,15.47
2018-01-14T21:16:41.879Z,14.37
2018-01-14T21:19:16.819Z,14.77
2018-01-14T21:21:46.914Z,14.60
2018-01-14T21:24:15.590Z,14.77
2018-01-14T21:26:45.542Z,15.83
2018-01-14T21:29:19.248Z,15.43
2018-01-14T21:31:50.301Z,14.97
2018-01-14T21:34:20.569Z,14.53
2018-01-14T21:36:48.234Z,16.23
2018-01-14T21:39:20.354Z,15.60
2018-01-14T21:41:57.728Z,15.53
2018-01-14T21:44:27.832Z,14.87
2018-01-14T21:46:56.498Z,15.10
2018-01-14T21:52:11.111Z,16.03
2018-01-14T21:54:39.775Z,15.47
2018-01-14T21:57:06.444Z,15.67
2018-01-14T21:59:40.243Z,15.73
2018-01-14T22:02:19.672Z,16.37
2018-01-14T22:05:01.230Z,15.63
2018-01-14T22:07:27.898Z,14.93
2018-01-14T22:09:54.628Z,15.80
2018-01-14T22:12:21.309Z,17.00
2018-01-14T22:14:51.172Z,15.80
2018-01-14T22:17:17.910Z,16.43
2018-01-14T22:19:51.281Z,16.40
2018-01-14T22:22:17.956Z,16.33
2018-01-14T22:24:44.651Z,15.27
2018-01-14T22:27:11.314Z,15.60
2018-01-14T22:29:39.910Z,14.83
2018-01-14T22:32:06.589Z,16.30
2018-01-14T22:34:33.256Z,16.63
2018-01-14T22:37:00.836Z,15.90
2018-01-14T22:39:27.744Z,16.07
2018-01-14T22:41:54.438Z,15.47
2018-01-14T22:44:21.157Z,16.17
2018-01-14T22:46:47.815Z,16.13
2018-01-14T22:49:25.263Z,16.33
2018-01-14T22:51:51.947Z,15.97
2018-01-14T22:54:25.840Z,14.97
2018-01-14T22:56:52.509Z,15.13
2018-01-14T22:59:19.169Z,15.23
2018-01-14T23:01:45.836Z,15.77
2018-01-14T23:04:12.518Z,14.90
2018-01-14T23:06:40.104Z,15.43
2018-01-14T23:09:12.619Z,15.43
2018-01-14T23:11:39.299Z,15.80
2018-01-14T23:14:05.972Z,14.70
2018-01-14T23:16:33.567Z,14.87
2018-01-14T23:19:00.242Z,16.13
2018-01-14T23:21:26.925Z,15.73
2018-01-14T23:23:53.623Z,15.37
2018-01-14T23:26:20.340Z,14.33
2018-01-14T23:28:47.009Z,14.63
2018-01-14T23:31:13.702Z,15.03
2018-01-14T23:33:40.400Z,15.33
2018-01-14T23:36:07.099Z,14.93
2018-01-14T23:38:39.347Z,14.83
2018-01-14T23:41:06.039Z,14.50
2018-01-14T23:43:34.622Z,15.03
2018-01-14T23:46:01.281Z,14.03
2018-01-14T23:48:27.953Z,14.97
2018-01-14T23:50:54.622Z,14.57
2018-01-14T23:53:21.307Z,14.97
2018-01-14T23:55:47.973Z,14.33
2018-01-14T23:58:14.726Z,14.43
